createdAt,value
2022-09-01T08:10:49.482Z,25.63
2022-09-01T08:13:18.992Z,25.81
2022-09-01T08:18:52.810Z,25.87
2022-09-01T08:21:34.334Z,26.01
2022-09-01T08:24:19.694Z,26.03
2022-09-01T08:26:46.583Z,26.00
2022-09-01T08:29:13.820Z,26.20
2022-09-01T08:31:42.724Z,26.09
2022-09-01T08:34:12.901Z,26.40
2022-09-01T08:36:40.653Z,26.66
2022-09-01T08:39:07.711Z,26.52
2022-09-01T08:41:47.124Z,26.76
2022-09-01T08:44:46.142Z,26.92
2022-09-01T08:47:28.709Z,26.75
2022-09-01T08:50:00.729Z,26.76
2022-09-01T08:52:53.019Z,26.64
2022-09-01T08:55:29.769Z,26.78
2022-09-01T08:57:59.838Z,27.39
2022-09-01T09:00:30.530Z,27.72
2022-09-01T09:03:27.482Z,28.23
2022-09-01T09:06:23.204Z,28.46
2022-09-01T09:09:01.468Z,28.67
2022-09-01T09:11:43.217Z,28.82
2022-09-01T09:14:28.617Z,27.98
2022-09-01T09:16:56.780Z,27.82
2022-09-01T09:19:23.649Z,28.45
2022-09-01T09:21:54.217Z,28.04
2022-09-01T09:24:50.501Z,27.97
2022-09-01T09:27:30.953Z,27.89
2022-09-01T09:30:21.012Z,28.18
2022-09-01T09:35:55.062Z,27.71
2022-09-01T09:38:29.389Z,27.85
2022-09-01T09:41:18.481Z,27.78
2022-09-01T09:43:59.296Z,27.73
2022-09-01T10:17:04.435Z,26.41
2022-09-01T10:19:35.943Z,26.61
2022-09-01T10:22:03.658Z,26.82
2022-09-01T10:24:38.882Z,27.37
2022-09-01T10:27:14.806Z,27.76
2022-09-01T10:29:49.020Z,28.02
2022-09-01T10:32:35.028Z,27.94
2022-09-01T10:35:05.554Z,27.52
2022-09-01T10:37:34.077Z,27.46
2022-09-01T10:40:20.139Z,27.18
2022-09-01T10:42:55.442Z,27.28
2022-09-01T10:45:40.985Z,27.54
2022-09-01T10:48:46.269Z,27.71
2022-09-01T10:51:18.428Z,27.77
2022-09-01T10:53:47.643Z,27.73
2022-09-01T10:56:28.160Z,27.69
2022-09-01T10:59:44.055Z,27.51
2022-09-01T11:02:35.936Z,27.52
2022-09-01T11:05:01.512Z,27.52
2022-09-01T11:08:00.188Z,27.40
2022-09-01T11:10:44.814Z,27.43
2022-09-01T11:13:18.808Z,27.14
2022-09-01T11:15:46.300Z,27.11
2022-09-01T11:18:29.717Z,26.96
2022-09-01T11:21:25.734Z,26.86
2022-09-01T11:24:31.172Z,26.88
2022-09-01T11:27:54.355Z,26.83
2022-09-01T11:31:06.517Z,26.76
2022-09-01T11:33:47.862Z,26.83
2022-09-01T11:36:29.958Z,26.75
2022-09-01T11:39:00.162Z,26.84
2022-09-01T11:41:50.667Z,26.76
2022-09-01T11:44:32.778Z,26.74
2022-09-01T11:47:17.328Z,26.82
2022-09-01T11:49:58.416Z,26.92
2022-09-01T11:52:32.603Z,26.87
2022-09-01T11:55:00.623Z,26.82
2022-09-01T11:57:36.787Z,26.75
2022-09-01T12:00:25.189Z,26.65
2022-09-01T12:02:55.023Z,26.54
2022-09-01T12:05:30.041Z,26.54
2022-09-01T12:07:58.164Z,25.81
2022-09-01T12:10:28.223Z,25.07
2022-09-01T12:13:22.937Z,24.86
2022-09-01T12:16:17.483Z,24.30
2022-09-01T12:18:49.100Z,24.15
2022-09-01T12:21:27.478Z,24.51
2022-09-01T12:24:09.782Z,24.14
2022-09-01T12:26:36.750Z,24.32
2022-09-01T12:29:05.544Z,23.94
2022-09-01T12:31:33.079Z,23.27
2022-09-01T12:34:04.624Z,22.66
2022-09-01T12:36:34.966Z,22.53
2022-09-01T12:39:24.622Z,22.31
2022-09-01T12:42:05.141Z,21.93
2022-09-01T12:44:37.727Z,22.06
2022-09-01T12:47:08.334Z,22.15
2022-09-01T12:49:50.208Z,22.01
2022-09-01T12:52:26.097Z,22.22
2022-09-01T12:54:59.310Z,22.36
2022-09-01T12:57:30.633Z,22.49
2022-09-01T13:00:13.061Z,22.53
2022-09-01T13:02:44.138Z,22.37
2022-09-01T13:05:42.659Z,22.21
2022-09-01T13:08:33.228Z,22.15
2022-09-01T13:11:20.213Z,22.15
2022-09-01T13:13:47.604Z,22.14
2022-09-01T13:16:14.815Z,22.02
2022-09-01T13:21:32.281Z,22.23
2022-09-01T13:23:59.438Z,21.81
2022-09-01T13:26:26.499Z,21.62
2022-09-01T13:28:54.148Z,21.63
2022-09-01T13:31:29.201Z,21.48
2022-09-01T13:34:22.086Z,21.34
2022-09-01T13:36:47.278Z,21.40
2022-09-01T13:39:16.072Z,21.05
2022-09-01T13:41:43.389Z,21.38
2022-09-01T13:44:11.699Z,21.52
2022-09-01T13:52:13.329Z,21.67
2022-09-01T13:54:40.781Z,21.75
2022-09-01T13:57:07.707Z,21.91
2022-09-01T13:59:34.830Z,22.23
2022-09-01T14:02:01.846Z,22.41
2022-09-01T14:04:29.178Z,22.48
2022-09-01T14:06:56.497Z,22.67
2022-09-01T14:09:23.614Z,22.83
2022-09-01T14:11:54.141Z,22.80
2022-09-01T14:14:21.591Z,22.82
2022-09-01T14:16:49.495Z,22.90
2022-09-01T14:19:16.740Z,23.11
2022-09-01T14:21:44.432Z,23.26
2022-09-01T14:24:12.885Z,23.21
2022-09-01T14:26:42.386Z,23.34
2022-09-01T14:29:09.626Z,23.48
2022-09-01T14:31:37.938Z,23.59
2022-09-01T14:34:05.214Z,23.62
2022-09-01T14:36:32.206Z,23.63
2022-09-01T14:38:59.615Z,23.67
2022-09-01T14:41:27.259Z,23.70
2022-09-01T14:43:58.638Z,23.91
2022-09-01T14:46:30.610Z,23.86
2022-09-01T14:48:57.703Z,23.73
2022-09-01T14:52:10.172Z,23.80
2022-09-01T14:54:14.705Z,23.51
2022-09-01T14:56:41.885Z,23.58
2022-09-01T14:59:09.603Z,23.60
2022-09-01T15:01:36.637Z,23.69
2022-09-01T15:04:03.730Z,23.67
2022-09-01T15:06:31.142Z,23.63
2022-09-01T15:08:58.052Z,23.56
2022-09-01T15:11:24.933Z,23.48
2022-09-01T15:13:52.269Z,23.55
2022-09-01T15:16:22.924Z,23.57
2022-09-01T15:18:51.132Z,23.61
2022-09-01T15:21:30.930Z,23.74
2022-09-01T15:23:58.310Z,23.75
2022-09-01T15:26:26.522Z,23.85
2022-09-01T15:28:54.066Z,23.70
2022-09-01T15:31:32.280Z,23.70
2022-09-01T15:34:02.340Z,23.64
2022-09-01T15:36:30.809Z,23.39
2022-09-01T15:38:58.829Z,23.41
2022-09-01T15:41:29.310Z,23.34
2022-09-01T15:43:57.604Z,23.13
2022-09-01T15:46:32.719Z,23.06
2022-09-01T15:49:06.596Z,23.02
2022-09-01T15:51:39.300Z,23.23
2022-09-01T15:54:09.525Z,23.28
2022-09-01T15:56:36.766Z,23.10
2022-09-01T15:59:05.987Z,23.07
2022-09-01T16:01:36.367Z,23.18
2022-09-01T16:04:05.973Z,23.24
2022-09-01T16:06:33.351Z,23.03
2022-09-01T16:09:00.344Z,23.10
2022-09-01T16:11:27.539Z,23.09
2022-09-01T16:13:54.759Z,23.02
2022-09-01T16:16:40.855Z,23.10
2022-09-01T16:19:26.263Z,22.99
2022-09-01T16:22:12.084Z,22.96
2022-09-01T16:24:44.457Z,22.79
2022-09-01T16:27:16.968Z,22.53
2022-09-01T16:29:45.377Z,22.75
2022-09-01T16:32:13.412Z,22.77
2022-09-01T16:34:47.146Z,22.71
2022-09-01T16:37:39.831Z,22.49
2022-09-01T16:40:31.688Z,22.64
2022-09-01T16:43:09.142Z,22.71
2022-09-01T16:45:42.877Z,22.61
2022-09-01T16:48:19.608Z,22.35
2022-09-01T16:50:52.878Z,22.51
2022-09-01T16:53:33.844Z,22.44
2022-09-01T16:56:23.561Z,22.62
2022-09-01T16:59:27.310Z,22.63
2022-09-01T17:02:01.635Z,22.68
2022-09-01T17:04:43.033Z,22.65
2022-09-01T17:07:30.297Z,22.60
2022-09-01T17:10:03.239Z,22.65
2022-09-01T17:12:37.558Z,22.67
2022-09-01T17:15:10.526Z,22.31
2022-09-01T17:17:45.196Z,22.21
2022-09-01T17:20:14.159Z,22.30
2022-09-01T17:22:49.585Z,22.29
2022-09-01T17:25:27.303Z,21.95
2022-09-01T17:27:58.197Z,21.82
2022-09-01T17:30:26.137Z,21.55
2022-09-01T17:33:03.064Z,21.41
2022-09-01T17:35:32.981Z,21.65
2022-09-01T17:38:14.143Z,21.69
2022-09-01T17:40:45.090Z,21.67
2022-09-01T17:43:12.090Z,21.61
2022-09-01T17:46:17.318Z,21.48
2022-09-01T17:49:13.073Z,21.70
2022-09-01T17:51:58.210Z,21.25
2022-09-01T17:55:07.202Z,21.12
2022-09-01T17:57:44.580Z,21.08
2022-09-01T18:00:49.871Z,21.00
2022-09-01T18:03:45.561Z,21.08
2022-09-01T18:06:36.789Z,20.86
2022-09-01T18:09:05.476Z,20.65
2022-09-01T18:11:46.177Z,20.67
2022-09-01T18:14:17.969Z,20.57
2022-09-01T18:17:04.676Z,20.61
2022-09-01T18:19:44.535Z,20.67
2022-09-01T18:22:18.837Z,20.65
2022-09-01T18:25:09.277Z,20.76
2022-09-01T18:27:37.023Z,20.67
2022-09-01T18:30:05.565Z,20.61
2022-09-01T18:32:42.787Z,20.78
2022-09-01T18:35:17.494Z,20.76
2022-09-01T18:38:13.570Z,20.90
2022-09-01T18:40:56.994Z,20.62
2022-09-01T18:43:42.727Z,20.73
2022-09-01T18:46:28.437Z,21.00
2022-09-01T18:49:36.637Z,21.11
2022-09-01T18:52:41.373Z,21.01
2022-09-01T18:55:17.629Z,20.97
2022-09-01T18:57:51.212Z,20.73
2022-09-01T19:00:30.592Z,20.70
2022-09-01T19:03:22.689Z,20.69
2022-09-01T19:06:14.351Z,20.54
2022-09-01T19:08:41.516Z,20.68
2022-09-01T19:11:29.554Z,20.67
2022-09-01T19:18:47.246Z,20.60
2022-09-01T19:21:25.797Z,20.48
2022-09-01T19:24:26.633Z,20.52
2022-09-01T19:27:21.878Z,20.36
2022-09-01T19:29:52.741Z,20.26
2022-09-01T19:32:22.746Z,20.27
2022-09-01T19:35:15.880Z,20.10
2022-09-01T19:37:50.662Z,20.12
2022-09-01T19:40:24.980Z,20.08
2022-09-01T19:43:06.803Z,20.07
2022-09-01T19:45:37.316Z,20.07
2022-09-01T19:48:19.275Z,20.07
2022-09-01T19:51:11.414Z,19.99
2022-09-01T19:53:45.991Z,19.94
2022-09-01T19:56:39.830Z,19.86
2022-09-01T19:59:14.250Z,19.78
2022-09-01T20:02:05.405Z,19.82
2022-09-01T20:04:56.940Z,19.80
2022-09-01T20:07:33.033Z,19.72
2022-09-01T20:10:32.110Z,19.73
2022-09-01T20:13:38.390Z,19.70
2022-09-01T20:16:30.418Z,19.66
2022-09-01T20:19:24.125Z,19.63
2022-09-01T20:21:51.102Z,19.62
2022-09-01T20:24:23.812Z,19.62
2022-09-01T20:27:03.155Z,19.66
2022-09-01T20:29:35.075Z,19.62
2022-09-01T20:32:04.193Z,19.62
2022-09-01T20:34:52.994Z,19.62
2022-09-01T20:37:43.206Z,19.63
2022-09-01T20:40:24.665Z,19.67
2022-09-01T20:43:22.615Z,19.67
2022-09-01T20:45:51.039Z,19.60
2022-09-01T20:48:26.896Z,19.63
2022-09-01T20:51:00.103Z,19.59
2022-09-01T20:53:53.687Z,19.59
2022-09-01T20:56:32.641Z,19.57
2022-09-01T20:59:28.855Z,19.52
2022-09-01T21:02:10.765Z,19.49
2022-09-01T21:05:07.445Z,19.45
2022-09-01T21:07:48.476Z,19.47
2022-09-01T21:10:38.955Z,19.49
2022-09-01T21:13:08.437Z,19.40
2022-09-01T21:16:03.353Z,19.39
2022-09-01T21:18:45.624Z,19.30
2022-09-01T21:21:30.544Z,19.28
2022-09-01T21:23:57.535Z,19.22
2022-09-01T21:26:24.634Z,19.26
2022-09-01T21:28:55.471Z,19.36
2022-09-01T21:31:24.410Z,19.37
2022-09-01T21:33:51.791Z,19.36
2022-09-01T21:36:18.753Z,19.36
2022-09-01T21:38:45.666Z,19.38
2022-09-01T21:41:13.459Z,19.41
2022-09-01T21:43:43.982Z,19.42
2022-09-01T21:46:13.763Z,19.42
2022-09-01T21:48:40.956Z,19.39
2022-09-01T21:51:07.902Z,19.31
2022-09-01T21:53:34.832Z,19.36
2022-09-01T21:56:01.958Z,19.38
2022-09-01T21:58:28.935Z,19.32
2022-09-01T22:00:57.685Z,19.36
2022-09-01T22:03:24.642Z,19.31
2022-09-01T22:05:51.912Z,19.24
2022-09-01T22:08:19.136Z,19.17
2022-09-01T22:10:51.693Z,19.21
2022-09-01T22:13:21.411Z,19.15
2022-09-01T22:15:52.596Z,19.09
2022-09-01T22:18:20.870Z,19.03
2022-09-01T22:20:48.714Z,19.00
2022-09-01T22:23:17.184Z,18.98
2022-09-01T22:25:47.096Z,19.00
2022-09-01T22:28:14.218Z,19.00
2022-09-01T22:30:49.536Z,19.04
2022-09-01T22:33:18.065Z,19.02
2022-09-01T22:35:49.502Z,19.06
2022-09-01T22:38:17.021Z,19.01
2022-09-01T22:40:50.422Z,18.99
2022-09-01T22:43:18.899Z,18.97
2022-09-01T22:45:47.358Z,18.95
2022-09-01T22:48:15.438Z,18.90
2022-09-01T22:50:44.425Z,18.87
2022-09-01T22:53:12.657Z,18.92
2022-09-01T22:55:42.661Z,18.75
2022-09-01T22:58:10.553Z,18.80
2022-09-01T23:00:43.677Z,18.76
2022-09-01T23:03:10.957Z,18.64
2022-09-01T23:05:37.885Z,18.65
2022-09-01T23:08:04.920Z,18.67
2022-09-01T23:10:32.494Z,18.63
2022-09-01T23:12:59.425Z,18.61
2022-09-01T23:15:26.792Z,18.61
2022-09-01T23:17:53.691Z,18.62
2022-09-01T23:20:21.132Z,18.54
2022-09-01T23:22:48.129Z,18.49
2022-09-01T23:25:17.220Z,18.52
2022-09-01T23:27:44.752Z,18.53
2022-09-01T23:30:14.223Z,18.59
2022-09-01T23:32:41.166Z,18.58
2022-09-01T23:35:09.151Z,18.63
2022-09-01T23:37:36.069Z,18.62
2022-09-01T23:40:04.977Z,18.61
2022-09-01T23:42:31.935Z,18.65
2022-09-01T23:44:58.884Z,18.70
2022-09-01T23:47:25.873Z,18.73
2022-09-01T23:49:52.882Z,18.77
2022-09-01T23:52:19.792Z,18.78
2022-09-01T23:54:46.730Z,18.81
2022-09-01T23:57:13.685Z,18.79
2022-09-01T23:59:40.619Z,18.80
